Time;durP1;ratioP1;P1;durP2;ratioP2;P2;SDS_P1;SDS_P2;PMS_P1;PMS_P2;Temp;Humidity;BMP_temperature;BMP_pressure;BME280_temperature;BME280_humidity;BME280_pressure;Samples;Min_cycle;Max_cycle;Signal;HPM_P1;HPM_P2
2022/05/16 00:01:35;;;;;;;;;;;24.70;99.90;;;;;;5052406;28;19924;-47
2022/05/16 00:04:01;;;;;;;;;;;24.70;99.90;;;;;;5052371;28;19920;-47
2022/05/16 00:06:26;;;;;;;;;;;24.70;99.90;;;;;;5052557;28;19905;-46
2022/05/16 00:08:55;;;;;;;;;;;24.70;99.90;;;;;;5052396;28;19911;-47
2022/05/16 00:11:20;;;;;;;;;;;24.80;99.90;;;;;;5052356;28;20016;-47
2022/05/16 00:13:47;;;;;;;;;;;24.80;99.90;;;;;;5052426;28;19948;-47
2022/05/16 00:16:13;;;;;;;;;;;24.80;99.90;;;;;;5052282;28;19908;-47
2022/05/16 00:18:39;;;;;;;;;;;24.80;99.90;;;;;;5051079;28;20303;-47
2022/05/16 00:21:04;;;;;;;;;;;24.80;99.90;;;;;;5052202;28;19909;-47
2022/05/16 00:23:30;;;;;;;;;;;24.80;99.90;;;;;;5052171;28;19939;-47
2022/05/16 00:25:55;;;;;;;;;;;24.80;99.90;;;;;;5050907;28;20280;-47
2022/05/16 00:28:21;;;;;;;;;;;24.80;99.90;;;;;;5052089;28;19911;-47
2022/05/16 00:30:46;;;;;;;;;;;24.80;99.90;;;;;;5052052;28;19927;-46
2022/05/16 00:33:12;;;;;;;;;;;24.80;99.90;;;;;;5052271;28;20391;-46
2022/05/16 00:35:38;;;;;;;;;;;24.80;99.90;;;;;;5052262;28;20315;-47
2022/05/16 00:38:03;;;;;;;;;;;24.80;99.90;;;;;;5052114;28;20410;-47
2022/05/16 00:40:29;;;;;;;;;;;24.70;99.90;;;;;;5052205;28;19912;-47
2022/05/16 00:43:02;;;;;;;;;;;24.80;99.90;;;;;;5051980;28;19904;-47
2022/05/16 00:45:27;;;;;;;;;;;24.80;99.90;;;;;;5051906;28;19920;-47
2022/05/16 00:47:53;;;;;;;;;;;24.80;99.90;;;;;;5051815;28;19905;-47
2022/05/16 00:50:19;;;;;;;;;;;24.70;99.90;;;;;;5051931;28;19905;-47
2022/05/16 00:52:46;;;;;;;;;;;24.80;99.90;;;;;;5051789;28;20034;-47
2022/05/16 00:55:14;;;;;;;;;;;24.80;99.90;;;;;;5051988;28;19908;-47
2022/05/16 00:57:42;;;;;;;;;;;24.80;99.90;;;;;;5051720;28;19905;-47
2022/05/16 01:00:10;;;;;;;;;;;24.80;99.90;;;;;;5063670;22;20349;-50
2022/05/16 01:05:22;;;;;;;;;;;24.70;99.90;;;;;;5051631;28;19923;-50
2022/05/16 01:07:48;;;;;;;;;;;24.80;99.90;;;;;;5051561;28;19991;-50
2022/05/16 01:10:15;;;;;;;;;;;24.80;99.90;;;;;;5051566;28;19908;-50
2022/05/16 01:12:43;;;;;;;;;;;24.80;99.90;;;;;;5051553;28;19984;-49
2022/05/16 01:15:13;;;;;;;;;;;24.70;99.90;;;;;;5051586;28;20414;-49
2022/05/16 01:17:39;;;;;;;;;;;24.70;99.90;;;;;;5051454;28;20395;-49
2022/05/16 01:20:06;;;;;;;;;;;24.70;99.90;;;;;;5051328;28;19905;-49
2022/05/16 01:22:42;;;;;;;;;;;24.70;99.90;;;;;;5051525;28;19911;-49
2022/05/16 01:25:10;;;;;;;;;;;24.70;99.90;;;;;;5051410;28;19912;-49
2022/05/16 01:27:44;;;;;;;;;;;24.70;99.90;;;;;;5051283;28;20277;-49
2022/05/16 01:30:11;;;;;;;;;;;24.70;99.90;;;;;;5052007;28;19927;-49
2022/05/16 01:32:36;;;;;;;;;;;24.70;99.90;;;;;;5054198;28;20306;-49
2022/05/16 01:35:02;;;;;;;;;;;24.70;99.90;;;;;;5055613;28;19915;-49
2022/05/16 01:38:18;;;;;;;;;;;24.70;99.90;;;;;;5054246;28;19916;-49
2022/05/16 01:40:14;;;;;;;;;;;24.70;99.90;;;;;;5055163;28;20344;-49
2022/05/16 01:42:39;;;;;;;;;;;24.70;99.90;;;;;;5055326;28;19905;-49
2022/05/16 01:45:05;;;;;;;;;;;24.70;99.90;;;;;;5055146;28;19916;-50
2022/05/16 01:47:33;;;;;;;;;;;24.70;99.90;;;;;;5055389;28;19912;-49
2022/05/16 01:49:58;;;;;;;;;;;24.70;99.90;;;;;;5055450;28;19995;-49
2022/05/16 01:52:24;;;;;;;;;;;24.70;99.90;;;;;;5055314;28;20718;-49
2022/05/16 01:54:50;;;;;;;;;;;24.70;99.90;;;;;;5055275;28;19909;-50
2022/05/16 01:57:16;;;;;;;;;;;24.70;99.90;;;;;;5055023;28;20007;-49
2022/05/16 01:59:41;;;;;;;;;;;24.70;99.90;;;;;;5055515;28;19914;-49
2022/05/16 02:02:07;;;;;;;;;;;24.70;99.90;;;;;;5055114;28;19997;-49
2022/05/16 02:04:32;;;;;;;;;;;24.70;99.90;;;;;;5055046;28;19995;-50
2022/05/16 02:06:58;;;;;;;;;;;24.70;99.90;;;;;;5054898;28;19905;-49
2022/05/16 02:09:24;;;;;;;;;;;24.70;99.90;;;;;;5054895;28;20243;-49
2022/05/16 02:11:50;;;;;;;;;;;24.70;99.90;;;;;;5054724;28;19905;-50
2022/05/16 02:14:15;;;;;;;;;;;24.70;99.90;;;;;;5054802;28;19904;-50
2022/05/16 02:16:41;;;;;;;;;;;24.70;99.90;;;;;;5054806;28;20237;-50
2022/05/16 02:19:07;;;;;;;;;;;24.60;99.90;;;;;;5054546;28;19905;-50
2022/05/16 02:27:00;;;;;;;;;;;24.70;99.90;;;;;;5054628;28;19911;-51
2022/05/16 02:29:26;;;;;;;;;;;24.70;99.90;;;;;;5054422;28;19908;-51
2022/05/16 02:31:51;;;;;;;;;;;24.60;99.90;;;;;;5054449;28;19909;-50
2022/05/16 02:34:17;;;;;;;;;;;24.60;99.90;;;;;;5054285;28;20317;-51
2022/05/16 02:36:43;;;;;;;;;;;24.60;99.90;;;;;;5054388;28;19904;-51
2022/05/16 02:39:09;;;;;;;;;;;24.60;99.90;;;;;;5054301;28;20352;-51
2022/05/16 02:41:34;;;;;;;;;;;24.60;99.90;;;;;;5054389;28;19919;-50
2022/05/16 02:44:00;;;;;;;;;;;24.60;99.90;;;;;;5054147;28;19968;-50
2022/05/16 02:46:26;;;;;;;;;;;24.60;99.90;;;;;;5054159;28;20715;-50
2022/05/16 02:48:51;;;;;;;;;;;24.60;99.90;;;;;;5054104;28;19987;-50
2022/05/16 02:51:17;;;;;;;;;;;24.60;99.90;;;;;;5054066;28;19908;-50
2022/05/16 02:53:42;;;;;;;;;;;24.60;99.90;;;;;;5053834;28;20364;-50
2022/05/16 02:56:08;;;;;;;;;;;24.60;99.90;;;;;;5053742;28;19904;-50
2022/05/16 02:58:34;;;;;;;;;;;24.50;99.90;;;;;;5054082;28;19912;-50
2022/05/16 03:00:59;;;;;;;;;;;24.50;99.90;;;;;;5054187;28;20296;-50
2022/05/16 03:03:25;;;;;;;;;;;24.50;99.90;;;;;;5053668;28;20308;-50
2022/05/16 03:05:51;;;;;;;;;;;24.50;99.90;;;;;;5053704;28;19919;-51
2022/05/16 03:08:16;;;;;;;;;;;24.50;99.90;;;;;;5052178;28;19912;-50
2022/05/16 03:10:42;;;;;;;;;;;24.50;99.90;;;;;;5053687;28;19908;-50
2022/05/16 03:13:07;;;;;;;;;;;24.50;99.90;;;;;;5053779;28;19995;-50
2022/05/16 03:15:33;;;;;;;;;;;24.50;99.90;;;;;;5053773;28;19915;-50
2022/05/16 03:17:59;;;;;;;;;;;24.50;99.90;;;;;;5053585;28;20275;-50
2022/05/16 03:20:25;;;;;;;;;;;24.50;99.90;;;;;;5053409;28;19905;-50
2022/05/16 03:22:50;;;;;;;;;;;24.50;99.90;;;;;;5053452;28;20296;-50
2022/05/16 03:25:16;;;;;;;;;;;24.40;99.90;;;;;;5053310;28;20323;-50
2022/05/16 03:27:42;;;;;;;;;;;24.40;99.90;;;;;;5053312;28;20327;-50
2022/05/16 03:30:09;;;;;;;;;;;24.50;99.90;;;;;;5053334;28;20360;-50
2022/05/16 03:32:34;;;;;;;;;;;24.50;99.90;;;;;;5052166;28;19963;-50
2022/05/16 03:35:00;;;;;;;;;;;24.40;99.90;;;;;;5053307;28;19999;-50
2022/05/16 03:37:26;;;;;;;;;;;24.40;99.90;;;;;;5053212;28;19912;-50
2022/05/16 03:42:35;;;;;;;;;;;24.40;99.90;;;;;;5053371;28;19927;-50
2022/05/16 03:45:02;;;;;;;;;;;24.50;99.90;;;;;;5052857;28;20372;-50
2022/05/16 03:47:27;;;;;;;;;;;24.40;99.90;;;;;;5053087;28;19905;-50
2022/05/16 03:49:53;;;;;;;;;;;24.40;99.90;;;;;;5053047;28;19912;-51
2022/05/16 03:52:19;;;;;;;;;;;24.40;99.90;;;;;;5052790;28;19905;-51
2022/05/16 03:54:44;;;;;;;;;;;24.40;99.90;;;;;;5052377;28;19968;-51
2022/05/16 03:57:10;;;;;;;;;;;24.40;99.90;;;;;;5052616;28;19905;-51
2022/05/16 03:59:35;;;;;;;;;;;24.30;99.90;;;;;;5064156;22;19904;-47
2022/05/16 04:02:01;;;;;;;;;;;24.30;99.90;;;;;;5053017;28;19913;-48
2022/05/16 04:04:27;;;;;;;;;;;24.30;99.90;;;;;;5052610;28;20403;-48
2022/05/16 04:06:53;;;;;;;;;;;24.30;99.90;;;;;;5052637;28;19905;-48
2022/05/16 04:09:19;;;;;;;;;;;24.40;99.90;;;;;;5052656;28;19912;-48
2022/05/16 04:11:44;;;;;;;;;;;24.30;99.90;;;;;;5052626;28;19905;-48
2022/05/16 04:14:10;;;;;;;;;;;24.30;99.90;;;;;;5051283;28;19966;-48
2022/05/16 04:16:37;;;;;;;;;;;24.30;99.90;;;;;;5052624;28;20352;-48
2022/05/16 04:19:05;;;;;;;;;;;24.30;99.90;;;;;;5052305;28;19907;-48
2022/05/16 04:21:30;;;;;;;;;;;24.30;99.90;;;;;;5052170;28;19940;-48
2022/05/16 04:23:56;;;;;;;;;;;24.30;99.90;;;;;;5052266;28;19944;-48
2022/05/16 04:26:22;;;;;;;;;;;24.30;99.90;;;;;;5052213;28;19904;-48
2022/05/16 04:28:47;;;;;;;;;;;24.30;99.90;;;;;;5052179;28;19948;-47
2022/05/16 04:31:13;;;;;;;;;;;24.30;99.90;;;;;;5052181;28;19905;-48
2022/05/16 04:33:39;;;;;;;;;;;24.30;99.90;;;;;;5052515;28;20330;-48
2022/05/16 04:36:04;;;;;;;;;;;24.30;99.90;;;;;;5052321;28;19909;-48
2022/05/16 04:38:31;;;;;;;;;;;24.30;99.90;;;;;;5052029;28;19905;-48
2022/05/16 04:43:41;;;;;;;;;;;24.30;99.90;;;;;;5052078;28;19978;-48
2022/05/16 04:46:07;;;;;;;;;;;24.30;99.90;;;;;;5051747;28;20372;-48
2022/05/16 04:48:33;;;;;;;;;;;24.30;99.90;;;;;;5051986;28;19931;-48
2022/05/16 04:50:59;;;;;;;;;;;24.30;99.90;;;;;;5051873;28;20346;-48
2022/05/16 04:53:25;;;;;;;;;;;24.30;99.90;;;;;;5051910;28;19905;-48
2022/05/16 04:55:50;;;;;;;;;;;24.30;99.90;;;;;;5051816;28;20284;-48
2022/05/16 04:58:16;;;;;;;;;;;24.30;99.90;;;;;;5051703;28;20345;-48
2022/05/16 05:00:41;;;;;;;;;;;24.30;99.90;;;;;;5051905;28;19916;-48
2022/05/16 05:03:07;;;;;;;;;;;24.40;99.90;;;;;;5051677;28;19908;-48
2022/05/16 05:05:35;;;;;;;;;;;24.40;99.90;;;;;;5050747;28;20369;-49
2022/05/16 05:08:00;;;;;;;;;;;24.40;99.90;;;;;;5051638;28;19912;-48
2022/05/16 05:16:02;;;;;;;;;;;24.30;99.90;;;;;;5051878;28;20367;-48
2022/05/16 05:18:27;;;;;;;;;;;24.30;99.90;;;;;;5051693;28;19962;-48
2022/05/16 05:20:53;;;;;;;;;;;24.30;99.90;;;;;;5051516;28;19904;-48
2022/05/16 05:23:19;;;;;;;;;;;24.40;99.90;;;;;;5051565;28;20311;-48
2022/05/16 05:25:44;;;;;;;;;;;24.30;99.90;;;;;;5051782;28;20011;-48
2022/05/16 05:28:10;;;;;;;;;;;24.40;99.90;;;;;;5051715;28;19988;-48
2022/05/16 05:30:35;;;;;;;;;;;24.40;99.90;;;;;;5051493;28;19909;-48
2022/05/16 05:33:01;;;;;;;;;;;24.40;99.90;;;;;;5051363;28;19932;-48
2022/05/16 05:35:29;;;;;;;;;;;24.40;99.90;;;;;;5051417;28;19904;-48
2022/05/16 05:37:55;;;;;;;;;;;24.40;99.90;;;;;;5051474;28;19987;-48
2022/05/16 05:40:21;;;;;;;;;;;24.40;99.90;;;;;;5051287;28;19958;-48
2022/05/16 05:42:48;;;;;;;;;;;24.40;99.90;;;;;;5051118;28;20366;-48
2022/05/16 05:45:14;;;;;;;;;;;24.40;99.90;;;;;;5051314;28;19913;-48
2022/05/16 05:47:39;;;;;;;;;;;24.40;99.90;;;;;;5051027;28;19904;-48
2022/05/16 05:50:06;;;;;;;;;;;24.40;99.90;;;;;;5051135;28;19939;-48
2022/05/16 05:52:32;;;;;;;;;;;24.40;99.90;;;;;;5051005;28;19911;-48
2022/05/16 05:54:57;;;;;;;;;;;24.40;99.90;;;;;;5051297;28;20003;-48
2022/05/16 05:57:25;;;;;;;;;;;24.40;99.90;;;;;;5050934;28;19912;-48
2022/05/16 05:59:52;;;;;;;;;;;24.40;99.90;;;;;;5050871;28;20003;-47
2022/05/16 06:02:17;;;;;;;;;;;24.50;99.90;;;;;;5051332;28;19908;-48
2022/05/16 06:04:43;;;;;;;;;;;24.50;99.90;;;;;;5051137;28;20074;-48
2022/05/16 06:07:08;;;;;;;;;;;24.50;99.90;;;;;;5050976;28;20261;-47
2022/05/16 06:09:34;;;;;;;;;;;24.50;99.90;;;;;;5050819;28;20274;-47
2022/05/16 06:12:02;;;;;;;;;;;24.50;99.90;;;;;;5049664;28;20017;-47
2022/05/16 06:14:28;;;;;;;;;;;24.50;99.90;;;;;;5050827;28;19909;-47
2022/05/16 06:16:54;;;;;;;;;;;24.50;99.90;;;;;;5052489;28;20361;-48
2022/05/16 06:19:20;;;;;;;;;;;24.50;99.90;;;;;;5054434;28;20357;-48
2022/05/16 06:21:45;;;;;;;;;;;24.50;99.90;;;;;;5054565;28;19944;-48
2022/05/16 06:26:57;;;;;;;;;;;24.50;99.90;;;;;;5054535;28;19911;-47
2022/05/16 06:29:23;;;;;;;;;;;24.50;99.90;;;;;;5054439;28;19905;-47
2022/05/16 06:31:48;;;;;;;;;;;24.60;99.90;;;;;;5054321;28;20275;-47
2022/05/16 06:34:14;;;;;;;;;;;24.60;99.90;;;;;;5054379;28;19905;-47
2022/05/16 06:36:39;;;;;;;;;;;24.60;99.90;;;;;;5054215;28;20022;-47
2022/05/16 06:39:05;;;;;;;;;;;24.60;99.90;;;;;;5054147;28;20312;-47
2022/05/16 06:41:32;;;;;;;;;;;24.60;99.90;;;;;;5053063;28;19905;-47
2022/05/16 06:43:58;;;;;;;;;;;24.60;99.90;;;;;;5052913;28;19911;-47
2022/05/16 06:46:23;;;;;;;;;;;24.70;99.90;;;;;;5054277;28;19904;-48
2022/05/16 06:48:49;;;;;;;;;;;24.70;99.90;;;;;;5053946;28;19936;-47
2022/05/16 06:51:15;;;;;;;;;;;24.70;99.90;;;;;;5054074;28;20019;-47
2022/05/16 06:53:40;;;;;;;;;;;24.70;99.90;;;;;;5053842;28;19959;-47
2022/05/16 06:56:06;;;;;;;;;;;24.70;99.90;;;;;;5053965;28;19927;-47
2022/05/16 06:58:31;;;;;;;;;;;24.70;99.90;;;;;;5053669;28;19912;-48
2022/05/16 07:00:57;;;;;;;;;;;24.70;99.90;;;;;;5053531;28;19924;-47
2022/05/16 07:03:23;;;;;;;;;;;24.70;99.90;;;;;;5053814;28;19905;-47
2022/05/16 07:05:49;;;;;;;;;;;24.70;99.90;;;;;;5053825;28;19913;-48
2022/05/16 07:08:15;;;;;;;;;;;24.70;99.90;;;;;;5053594;28;19932;-48
2022/05/16 07:10:41;;;;;;;;;;;24.70;99.90;;;;;;5053470;28;20353;-48
2022/05/16 07:13:08;;;;;;;;;;;24.70;99.90;;;;;;5053513;28;19932;-48
2022/05/16 07:15:34;;;;;;;;;;;24.70;99.90;;;;;;5053388;28;19940;-48
2022/05/16 07:18:00;;;;;;;;;;;24.70;99.90;;;;;;5053277;28;19944;-48
2022/05/16 07:20:25;;;;;;;;;;;24.70;99.90;;;;;;5053326;28;19951;-48
2022/05/16 07:22:51;;;;;;;;;;;24.70;99.90;;;;;;5053385;28;20400;-48
2022/05/16 07:25:22;;;;;;;;;;;24.70;99.90;;;;;;5053677;28;19919;-48
2022/05/16 07:27:56;;;;;;;;;;;24.70;99.90;;;;;;5052842;28;20291;-48
2022/05/16 07:30:23;;;;;;;;;;;24.70;99.90;;;;;;5053195;28;19908;-48
2022/05/16 07:32:48;;;;;;;;;;;24.80;99.90;;;;;;5053339;28;19911;-48
2022/05/16 07:35:17;;;;;;;;;;;24.80;99.90;;;;;;5053212;28;19904;-49
2022/05/16 07:37:44;;;;;;;;;;;24.80;99.90;;;;;;5053010;28;20000;-49
2022/05/16 07:40:11;;;;;;;;;;;24.80;99.90;;;;;;5052992;28;19904;-49
2022/05/16 07:42:37;;;;;;;;;;;24.80;99.90;;;;;;5053088;28;19912;-48
2022/05/16 07:45:03;;;;;;;;;;;24.80;99.90;;;;;;5052780;28;19912;-49
2022/05/16 07:47:32;;;;;;;;;;;24.80;99.90;;;;;;5053020;28;19908;-48
2022/05/16 07:49:58;;;;;;;;;;;24.80;99.90;;;;;;5052872;28;19911;-48
2022/05/16 07:52:24;;;;;;;;;;;24.80;99.90;;;;;;5052840;28;19911;-48
2022/05/16 07:54:50;;;;;;;;;;;24.80;99.90;;;;;;5052880;28;20275;-48
2022/05/16 07:57:15;;;;;;;;;;;24.80;99.90;;;;;;5052803;28;19904;-49
2022/05/16 07:59:42;;;;;;;;;;;24.80;99.90;;;;;;5052619;28;19905;-48
2022/05/16 08:02:08;;;;;;;;;;;24.80;99.90;;;;;;5052662;28;19936;-49
2022/05/16 08:04:34;;;;;;;;;;;24.80;99.90;;;;;;5052487;28;20284;-48
2022/05/16 08:06:59;;;;;;;;;;;24.80;99.90;;;;;;5052499;28;19904;-48
2022/05/16 08:12:10;;;;;;;;;;;24.70;99.90;;;;;;5052403;28;19958;-49
2022/05/16 08:14:38;;;;;;;;;;;24.70;99.90;;;;;;5052507;28;19905;-48
2022/05/16 08:17:04;;;;;;;;;;;24.80;99.90;;;;;;5052083;28;20395;-48
2022/05/16 08:19:33;;;;;;;;;;;24.80;99.90;;;;;;5052238;28;19901;-48
2022/05/16 08:21:59;;;;;;;;;;;24.80;99.90;;;;;;5052071;28;20378;-48
2022/05/16 08:24:25;;;;;;;;;;;24.80;99.90;;;;;;5052176;28;19913;-48
2022/05/16 08:26:50;;;;;;;;;;;24.80;99.90;;;;;;5052371;28;20039;-48
2022/05/16 08:29:16;;;;;;;;;;;24.90;99.90;;;;;;5052154;28;19928;-48
2022/05/16 08:31:42;;;;;;;;;;;24.90;99.90;;;;;;5052060;28;19991;-48
2022/05/16 08:34:07;;;;;;;;;;;24.90;99.90;;;;;;5052051;28;19909;-49
2022/05/16 08:42:05;;;;;;;;;;;25.00;99.90;;;;;;5052228;28;19979;-48
2022/05/16 08:44:33;;;;;;;;;;;25.00;99.90;;;;;;5051686;28;20275;-48
2022/05/16 08:47:11;;;;;;;;;;;25.10;99.90;;;;;;5051733;28;19911;-48
2022/05/16 08:49:52;;;;;;;;;;;25.10;99.90;;;;;;5051799;28;19905;-47
2022/05/16 08:52:29;;;;;;;;;;;25.10;99.90;;;;;;5051836;28;19971;-48
2022/05/16 08:55:01;;;;;;;;;;;25.20;99.90;;;;;;5051917;28;19905;-47
2022/05/16 08:57:32;;;;;;;;;;;25.20;99.90;;;;;;5051657;28;19912;-48
2022/05/16 09:00:01;;;;;;;;;;;25.20;99.90;;;;;;5051253;28;19995;-48
2022/05/16 09:02:29;;;;;;;;;;;25.20;99.90;;;;;;5051485;28;20372;-48
2022/05/16 09:05:07;;;;;;;;;;;25.30;99.90;;;;;;5051503;28;20477;-48
2022/05/16 09:07:50;;;;;;;;;;;25.30;99.90;;;;;;5051473;28;19912;-47
2022/05/16 09:10:18;;;;;;;;;;;25.30;99.90;;;;;;5051327;28;19908;-48
2022/05/16 09:13:02;;;;;;;;;;;25.30;99.90;;;;;;5051530;28;19904;-48
2022/05/16 09:15:30;;;;;;;;;;;25.30;99.90;;;;;;5051439;28;19905;-48
2022/05/16 09:17:56;;;;;;;;;;;25.40;99.90;;;;;;5051736;28;19905;-48
2022/05/16 09:20:33;;;;;;;;;;;25.40;99.90;;;;;;5051567;28;19911;-48
2022/05/16 09:22:59;;;;;;;;;;;25.40;99.90;;;;;;5051437;28;20356;-48
2022/05/16 09:25:32;;;;;;;;;;;25.40;99.90;;;;;;5051673;28;19959;-48
2022/05/16 09:30:45;;;;;;;;;;;25.40;99.90;;;;;;5051598;28;19911;-49
2022/05/16 09:33:15;;;;;;;;;;;25.40;99.90;;;;;;5051274;28;20359;-49
2022/05/16 09:35:59;;;;;;;;;;;25.40;99.90;;;;;;5051146;28;19986;-48
2022/05/16 09:38:25;;;;;;;;;;;25.40;99.90;;;;;;5051434;28;19928;-48
2022/05/16 09:41:11;;;;;;;;;;;25.40;99.90;;;;;;5051294;28;20370;-48
2022/05/16 09:43:43;;;;;;;;;;;25.40;99.90;;;;;;5051248;28;19904;-48
2022/05/16 09:46:27;;;;;;;;;;;25.40;99.90;;;;;;5051168;28;19913;-48
2022/05/16 09:49:02;;;;;;;;;;;25.40;99.90;;;;;;5051434;28;19905;-48
2022/05/16 09:51:29;;;;;;;;;;;25.40;99.90;;;;;;5052148;28;20344;-50
2022/05/16 09:54:08;;;;;;;;;;;25.50;99.90;;;;;;5055340;28;19999;-49
2022/05/16 09:56:35;;;;;;;;;;;25.50;99.90;;;;;;5055222;28;20276;-48
2022/05/16 09:59:00;;;;;;;;;;;25.50;99.90;;;;;;5054958;28;19905;-49
2022/05/16 10:01:31;;;;;;;;;;;25.50;99.90;;;;;;5055020;28;19920;-49
2022/05/16 10:04:06;;;;;;;;;;;25.50;99.90;;;;;;5054980;28;19951;-49
2022/05/16 10:06:34;;;;;;;;;;;25.50;99.90;;;;;;5054903;28;19913;-49
2022/05/16 10:09:04;;;;;;;;;;;25.50;99.90;;;;;;5053535;28;19909;-49
2022/05/16 10:11:31;;;;;;;;;;;25.50;99.90;;;;;;5054755;28;19913;-48
2022/05/16 10:13:57;;;;;;;;;;;25.60;99.90;;;;;;5055045;28;20375;-49
2022/05/16 10:16:26;;;;;;;;;;;25.60;99.90;;;;;;5054527;28;19905;-49
2022/05/16 10:18:53;;;;;;;;;;;25.60;99.90;;;;;;5054573;28;20355;-49
2022/05/16 10:21:40;;;;;;;;;;;25.60;99.90;;;;;;5054620;28;19931;-49
2022/05/16 10:24:08;;;;;;;;;;;25.60;99.90;;;;;;5054471;28;19905;-49
2022/05/16 10:26:38;;;;;;;;;;;25.70;99.90;;;;;;5054397;28;19919;-49
2022/05/16 10:29:06;;;;;;;;;;;25.60;99.90;;;;;;5054351;28;19905;-49
2022/05/16 10:34:22;;;;;;;;;;;25.70;99.90;;;;;;5054665;28;20319;-49
2022/05/16 10:36:50;;;;;;;;;;;25.70;99.90;;;;;;5054362;28;19923;-49
2022/05/16 10:39:18;;;;;;;;;;;25.70;99.90;;;;;;5054156;28;19905;-49
2022/05/16 10:41:50;;;;;;;;;;;25.70;99.90;;;;;;5054069;28;19904;-49
2022/05/16 10:44:34;;;;;;;;;;;25.70;99.90;;;;;;5053825;28;19946;-49
2022/05/16 10:47:00;;;;;;;;;;;25.70;99.90;;;;;;5052965;28;19912;-49
2022/05/16 10:49:28;;;;;;;;;;;25.70;99.90;;;;;;5054149;28;20158;-49
2022/05/16 10:52:17;;;;;;;;;;;25.70;99.90;;;;;;5054013;28;19908;-49
2022/05/16 10:54:42;;;;;;;;;;;25.80;99.90;;;;;;5047987;28;19905;-50
2022/05/16 10:57:20;;;;;;;;;;;25.80;99.90;;;;;;5053745;28;19919;-49
2022/05/16 10:59:55;;;;;;;;;;;25.80;99.90;;;;;;5053732;28;19905;-49
2022/05/16 11:02:36;;;;;;;;;;;25.80;99.90;;;;;;5053218;28;19978;-49
2022/05/16 11:05:25;;;;;;;;;;;25.80;99.90;;;;;;5053363;28;20011;-49
2022/05/16 11:08:01;;;;;;;;;;;25.80;99.90;;;;;;5053497;28;19904;-49
2022/05/16 11:10:46;;;;;;;;;;;25.90;99.90;;;;;;5053787;28;19967;-49
2022/05/16 11:13:32;;;;;;;;;;;25.80;99.90;;;;;;5053563;28;19915;-49
2022/05/16 11:16:10;;;;;;;;;;;25.80;99.90;;;;;;5053662;28;20352;-48
2022/05/16 11:18:58;;;;;;;;;;;25.80;99.90;;;;;;5053505;28;19905;-48
2022/05/16 11:21:33;;;;;;;;;;;25.90;99.90;;;;;;5033864;28;19905;-48
2022/05/16 11:24:05;;;;;;;;;;;25.90;99.90;;;;;;5053563;28;20399;-48
2022/05/16 11:26:47;;;;;;;;;;;25.90;99.90;;;;;;5053449;28;19944;-48
2022/05/16 11:29:23;;;;;;;;;;;25.90;99.90;;;;;;5053483;28;19996;-48
2022/05/16 11:31:58;;;;;;;;;;;25.90;99.90;;;;;;5053219;28;19909;-48
2022/05/16 11:34:34;;;;;;;;;;;25.90;99.90;;;;;;5053240;28;19911;-48
2022/05/16 11:37:08;;;;;;;;;;;25.90;99.90;;;;;;5053161;28;19904;-48
2022/05/16 11:39:49;;;;;;;;;;;25.90;99.90;;;;;;5053015;28;19920;-48
2022/05/16 11:42:18;;;;;;;;;;;25.90;99.90;;;;;;5052942;28;20368;-49
2022/05/16 11:44:59;;;;;;;;;;;25.90;99.90;;;;;;5052987;28;19968;-49
2022/05/16 11:47:28;;;;;;;;;;;25.90;99.90;;;;;;5053228;28;19912;-49
2022/05/16 11:49:59;;;;;;;;;;;25.90;99.90;;;;;;5051557;28;19915;-48
2022/05/16 11:52:36;;;;;;;;;;;25.80;99.90;;;;;;5052871;28;19905;-48
2022/05/16 12:00:31;;;;;;;;;;;25.80;99.90;;;;;;5052838;28;19944;-47
2022/05/16 12:00:40;;;;;;;;;;;25.90;99.90;;;;;;5052614;28;19924;-48
2022/05/16 12:03:05;;;;;;;;;;;25.90;99.90;;;;;;5052602;28;19975;-48
2022/05/16 12:05:37;;;;;;;;;;;25.90;99.90;;;;;;5052559;28;19938;-48
2022/05/16 12:08:14;;;;;;;;;;;25.90;99.90;;;;;;5052686;28;19905;-48
2022/05/16 12:10:54;;;;;;;;;;;25.90;99.90;;;;;;5052542;28;19909;-48
2022/05/16 12:13:27;;;;;;;;;;;25.90;99.90;;;;;;5052672;28;19904;-48
2022/05/16 12:16:11;;;;;;;;;;;25.80;99.90;;;;;;5052064;28;19908;-48
2022/05/16 12:18:40;;;;;;;;;;;25.80;99.90;;;;;;5052229;28;19962;-48
2022/05/16 12:21:09;;;;;;;;;;;25.80;99.90;;;;;;5052179;28;19904;-48
2022/05/16 12:23:43;;;;;;;;;;;25.80;99.90;;;;;;5052656;28;19928;-48
2022/05/16 12:26:09;;;;;;;;;;;25.80;99.90;;;;;;5050861;28;20383;-48
2022/05/16 12:28:35;;;;;;;;;;;25.90;99.90;;;;;;5045966;28;19916;-47
2022/05/16 12:31:01;;;;;;;;;;;25.90;99.90;;;;;;5040402;28;20000;-48
2022/05/16 12:33:37;;;;;;;;;;;25.90;99.90;;;;;;5032770;28;19905;-48
2022/05/16 12:36:02;;;;;;;;;;;25.90;99.90;;;;;;5032959;28;19905;-48
2022/05/16 12:38:28;;;;;;;;;;;25.90;99.90;;;;;;5038731;28;20379;-48
2022/05/16 12:41:09;;;;;;;;;;;25.90;99.90;;;;;;5051308;28;20297;-48
2022/05/16 12:43:50;;;;;;;;;;;26.00;99.90;;;;;;5051645;28;20269;-49
2022/05/16 12:46:29;;;;;;;;;;;26.00;99.90;;;;;;5039170;28;20473;-48
2022/05/16 12:49:09;;;;;;;;;;;26.10;99.90;;;;;;5051352;28;20374;-48
2022/05/16 12:51:45;;;;;;;;;;;26.10;99.90;;;;;;5042117;28;19905;-48
2022/05/16 12:54:29;;;;;;;;;;;26.20;99.90;;;;;;5042431;28;20408;-48
2022/05/16 12:56:56;;;;;;;;;;;26.20;99.90;;;;;;5051226;28;19915;-47
2022/05/16 12:59:27;;;;;;;;;;;26.10;99.90;;;;;;5050943;28;19905;-47
2022/05/16 13:01:53;;;;;;;;;;;26.20;99.90;;;;;;5041348;28;19916;-47
2022/05/16 13:04:37;;;;;;;;;;;26.20;99.90;;;;;;5041449;28;20271;-48
2022/05/16 13:07:04;;;;;;;;;;;26.20;99.90;;;;;;5041789;28;20388;-48
2022/05/16 13:09:46;;;;;;;;;;;26.20;99.90;;;;;;5051080;28;19905;-48
2022/05/16 13:12:23;;;;;;;;;;;26.20;99.90;;;;;;5044619;28;19912;-48
2022/05/16 13:15:01;;;;;;;;;;;26.20;99.90;;;;;;5048282;28;19905;-48
2022/05/16 13:17:33;;;;;;;;;;;26.20;99.90;;;;;;5051558;28;19915;-50
2022/05/16 13:20:00;;;;;;;;;;;26.20;99.90;;;;;;5051388;28;19963;-49
2022/05/16 13:22:26;;;;;;;;;;;26.10;99.90;;;;;;5051276;28;19905;-49
2022/05/16 13:24:52;;;;;;;;;;;26.00;99.90;;;;;;5049805;28;19978;-47
2022/05/16 13:30:05;;;;;;;;;;;26.10;99.90;;;;;;5055504;28;19911;-48
2022/05/16 13:32:31;;;;;;;;;;;26.20;99.90;;;;;;5055137;28;19905;-49
2022/05/16 13:34:58;;;;;;;;;;;26.30;99.90;;;;;;5053867;28;19905;-49
2022/05/16 13:37:26;;;;;;;;;;;26.30;99.90;;;;;;5055393;28;19971;-48
2022/05/16 13:40:03;;;;;;;;;;;26.30;99.90;;;;;;5055318;28;19951;-49
2022/05/16 13:42:32;;;;;;;;;;;26.30;99.90;;;;;;5055051;28;20360;-49
2022/05/16 13:44:58;;;;;;;;;;;26.30;99.90;;;;;;5052216;28;19920;-49
2022/05/16 13:47:25;;;;;;;;;;;26.30;99.90;;;;;;5053516;28;19905;-48
2022/05/16 13:49:51;;;;;;;;;;;26.20;99.90;;;;;;5052082;28;19904;-48
2022/05/16 13:52:22;;;;;;;;;;;26.20;99.90;;;;;;5053381;28;19954;-48
2022/05/16 13:54:48;;;;;;;;;;;26.20;99.90;;;;;;5053304;28;19915;-48
2022/05/16 13:57:18;;;;;;;;;;;26.30;99.90;;;;;;5052420;28;19931;-48
2022/05/16 13:59:43;;;;;;;;;;;26.20;99.90;;;;;;5054485;28;19987;-48
2022/05/16 14:02:11;;;;;;;;;;;26.20;99.90;;;;;;5044410;28;20434;-48
2022/05/16 14:04:45;;;;;;;;;;;26.20;99.90;;;;;;5036513;28;19917;-48
2022/05/16 14:07:12;;;;;;;;;;;26.30;99.90;;;;;;5034044;28;20347;-48
2022/05/16 14:09:43;;;;;;;;;;;26.30;99.90;;;;;;5034360;28;19923;-48
2022/05/16 14:12:10;;;;;;;;;;;26.20;99.90;;;;;;5033571;28;19912;-48
2022/05/16 14:14:37;;;;;;;;;;;26.30;99.90;;;;;;5045202;28;19905;-48
2022/05/16 14:17:04;;;;;;;;;;;26.30;99.90;;;;;;5048416;28;19901;-48
2022/05/16 14:19:39;;;;;;;;;;;26.30;99.90;;;;;;5043717;28;19908;-47
2022/05/16 14:22:10;;;;;;;;;;;26.30;99.90;;;;;;5040479;28;20293;-48
2022/05/16 14:24:55;;;;;;;;;;;26.30;99.90;;;;;;5043504;28;19912;-51
2022/05/16 14:27:23;;;;;;;;;;;26.30;99.90;;;;;;5027525;28;19905;-50
2022/05/16 14:29:55;;;;;;;;;;;26.40;99.90;;;;;;5034755;28;20330;-47
2022/05/16 14:32:21;;;;;;;;;;;26.40;99.90;;;;;;5044547;28;19905;-47
2022/05/16 14:34:57;;;;;;;;;;;26.40;99.90;;;;;;5045041;28;20222;-48
2022/05/16 14:37:24;;;;;;;;;;;26.40;99.90;;;;;;5051553;28;19909;-48
2022/05/16 14:40:04;;;;;;;;;;;26.40;99.90;;;;;;5053095;28;19979;-48
2022/05/16 14:42:40;;;;;;;;;;;26.40;99.90;;;;;;5052011;28;19916;-48
2022/05/16 14:45:06;;;;;;;;;;;26.40;99.90;;;;;;5051333;28;19920;-49
2022/05/16 14:47:39;;;;;;;;;;;26.40;99.90;;;;;;5045643;28;20671;-48
2022/05/16 14:50:34;;;;;;;;;;;26.40;99.90;;;;;;5048883;28;19935;-48
2022/05/16 14:53:01;;;;;;;;;;;26.40;99.90;;;;;;5028985;28;20403;-49
2022/05/16 14:55:28;;;;;;;;;;;26.40;99.90;;;;;;5048970;28;19905;-48
2022/05/16 14:57:54;;;;;;;;;;;26.40;99.90;;;;;;5042550;28;19938;-47
2022/05/16 15:05:49;;;;;;;;;;;26.40;99.90;;;;;;5049143;28;19923;-48
2022/05/16 15:08:19;;;;;;;;;;;26.40;99.90;;;;;;5052226;28;19958;-47
2022/05/16 15:10:44;;;;;;;;;;;26.50;99.90;;;;;;5052683;28;19911;-48
2022/05/16 15:13:11;;;;;;;;;;;26.50;99.90;;;;;;5052902;28;19905;-48